Time;durP1;ratioP1;P1;durP2;ratioP2;P2;SDS_P1;SDS_P2;PMS_P1;PMS_P2;Temp;Humidity;BMP_temperature;BMP_pressure;BME280_temperature;BME280_humidity;BME280_pressure;Samples;Min_cycle;Max_cycle;Signal;HPM_P1;HPM_P2
2022/06/26 00:00:39;;;;;;;5.78;5.28;;;20.20;99.90;;;;;;6164759;29;20274;-67
2022/06/26 00:03:46;;;;;;;6.32;5.93;;;20.10;99.90;;;;;;6164182;29;20369;-67
2022/06/26 00:06:51;;;;;;;10.38;5.57;;;20.00;99.90;;;;;;6174396;28;20301;-67
2022/06/26 00:09:56;;;;;;;6.38;5.78;;;20.00;99.90;;;;;;6188462;28;20274;-67
2022/06/26 00:13:01;;;;;;;5.95;5.45;;;20.00;99.90;;;;;;6187895;28;20293;-67
2022/06/26 00:16:07;;;;;;;5.28;4.97;;;20.00;99.90;;;;;;6188006;28;20598;-67
2022/06/26 00:19:14;;;;;;;7.32;5.43;;;19.90;99.90;;;;;;6188517;28;20338;-67
2022/06/26 00:22:20;;;;;;;5.38;5.18;;;19.90;99.90;;;;;;6188082;28;20560;-67
2022/06/26 00:25:26;;;;;;;5.28;4.97;;;19.80;99.90;;;;;;6187888;28;20453;-67
2022/06/26 00:28:31;;;;;;;8.70;8.07;;;19.90;99.90;;;;;;6187939;28;20273;-67
2022/06/26 00:31:37;;;;;;;5.43;4.97;;;19.80;99.90;;;;;;6187740;28;20279;-67
2022/06/26 00:34:43;;;;;;;6.15;5.60;;;19.80;99.90;;;;;;6188092;28;20289;-67
2022/06/26 00:37:49;;;;;;;6.43;5.90;;;19.70;99.90;;;;;;6187635;28;20278;-67
2022/06/26 00:40:54;;;;;;;6.10;5.70;;;19.70;99.90;;;;;;6187629;28;20273;-67
2022/06/26 00:43:59;;;;;;;6.32;5.90;;;19.60;99.90;;;;;;6170456;28;20460;-67
2022/06/26 00:47:05;;;;;;;5.85;5.53;;;19.60;99.90;;;;;;6170829;28;20269;-67
2022/06/26 00:50:15;;;;;;;5.93;5.47;;;19.70;99.90;;;;;;6188115;28;20278;-67
2022/06/26 00:53:20;;;;;;;5.53;5.22;;;19.70;99.90;;;;;;6187847;28;20278;-67
2022/06/26 00:56:26;;;;;;;5.95;5.47;;;19.60;99.90;;;;;;6170521;28;20285;-67
2022/06/26 00:59:32;;;;;;;6.53;5.30;;;19.60;99.90;;;;;;6170709;28;20464;-67
2022/06/26 01:02:37;;;;;;;5.82;5.40;;;19.60;99.90;;;;;;6187762;28;20295;-67
2022/06/26 01:05:44;;;;;;;6.75;5.57;;;19.50;99.90;;;;;;6150938;29;20566;-67
2022/06/26 01:08:49;;;;;;;5.93;5.22;;;19.50;99.90;;;;;;6163998;28;20298;-67
2022/06/26 01:11:55;;;;;;;5.60;5.30;;;19.40;99.90;;;;;;6162765;28;20274;-67
2022/06/26 01:15:00;;;;;;;7.10;5.65;;;19.40;99.90;;;;;;6162736;28;20589;-67
2022/06/26 01:18:12;;;;;;;6.30;5.70;;;19.40;99.90;;;;;;6162461;29;20279;-67
2022/06/26 01:21:22;;;;;;;6.22;5.90;;;19.40;99.90;;;;;;6162960;28;20287;-67
2022/06/26 01:24:29;;;;;;;6.18;5.78;;;19.30;99.90;;;;;;6162739;29;20279;-67
2022/06/26 01:27:42;;;;;;;5.60;5.30;;;19.30;99.90;;;;;;6163757;29;20275;-67
2022/06/26 01:30:48;;;;;;;5.70;5.25;;;19.30;99.90;;;;;;6146743;29;20270;-67
2022/06/26 01:33:53;;;;;;;9.00;5.78;;;19.20;99.90;;;;;;6162729;28;20274;-67
2022/06/26 01:36:59;;;;;;;6.15;5.75;;;19.30;99.90;;;;;;6162572;28;20274;-67
2022/06/26 01:40:09;;;;;;;6.30;5.70;;;19.30;99.90;;;;;;6166378;28;20271;-67
2022/06/26 01:43:18;;;;;;;6.15;5.60;;;19.30;99.90;;;;;;6166225;29;20278;-67
2022/06/26 01:46:26;;;;;;;5.47;5.30;;;19.20;99.90;;;;;;6166716;29;20279;-67
2022/06/26 01:49:32;;;;;;;6.13;5.70;;;19.20;99.90;;;;;;6166593;29;20274;-67
2022/06/26 01:52:38;;;;;;;6.40;5.90;;;19.30;99.90;;;;;;6166652;29;20274;-67
2022/06/26 01:55:45;;;;;;;6.40;6.00;;;19.20;99.90;;;;;;6166384;29;20290;-67
2022/06/26 01:58:53;;;;;;;5.90;5.55;;;19.20;99.90;;;;;;6166702;28;20278;-67
2022/06/26 02:02:04;;;;;;;6.47;6.00;;;19.20;99.90;;;;;;6166327;29;20578;-67
2022/06/26 02:05:11;;;;;;;6.05;5.70;;;19.10;99.90;;;;;;6173067;28;20275;-67
2022/06/26 02:08:18;;;;;;;5.88;5.47;;;19.20;99.90;;;;;;6186498;28;20298;-67
2022/06/26 02:14:48;;;;;;;6.07;5.57;;;19.20;99.90;;;;;;6173797;28;20293;-67
2022/06/26 02:17:53;;;;;;;11.15;10.13;;;19.10;99.90;;;;;;6190562;28;20274;-67
2022/06/26 02:20:59;;;;;;;7.35;6.90;;;19.00;99.90;;;;;;6189287;28;20270;-67
2022/06/26 02:24:08;;;;;;;6.50;6.00;;;19.00;99.90;;;;;;6173376;28;20273;-67
2022/06/26 02:27:15;;;;;;;6.03;5.53;;;18.90;99.90;;;;;;6173454;28;20282;-67
2022/06/26 02:30:20;;;;;;;7.80;6.10;;;18.90;99.90;;;;;;6173261;28;20581;-67
2022/06/26 02:33:26;;;;;;;5.95;5.45;;;18.90;99.90;;;;;;6190671;28;20451;-67
2022/06/26 02:36:31;;;;;;;6.10;5.80;;;19.00;99.90;;;;;;6190404;28;20297;-67
2022/06/26 02:39:36;;;;;;;5.65;5.38;;;18.90;99.90;;;;;;6172939;28;20278;-67
2022/06/26 02:42:44;;;;;;;6.03;5.43;;;19.00;99.90;;;;;;6173087;28;20437;-67
2022/06/26 02:45:49;;;;;;;6.53;5.72;;;19.00;99.90;;;;;;6173126;28;20282;-67
2022/06/26 02:48:55;;;;;;;5.90;5.40;;;18.90;99.90;;;;;;6190003;28;20274;-67
2022/06/26 02:52:00;;;;;;;5.85;5.57;;;18.80;99.90;;;;;;6172333;28;20273;-67
2022/06/26 02:55:08;;;;;;;5.75;5.45;;;18.90;99.90;;;;;;6172997;28;20273;-67
2022/06/26 02:58:19;;;;;;;6.03;5.57;;;19.00;99.90;;;;;;6172875;28;20305;-67
2022/06/26 03:01:30;;;;;;;6.20;5.72;;;19.00;99.90;;;;;;6172138;28;20277;-67
2022/06/26 03:04:51;;;;;;;6.20;5.75;;;19.00;99.90;;;;;;6159811;29;20272;-67
2022/06/26 03:07:57;;;;;;;6.13;5.60;;;19.10;99.90;;;;;;6165602;28;20319;-67
2022/06/26 03:11:02;;;;;;;5.88;5.45;;;19.20;99.90;;;;;;6148982;29;20278;-67
2022/06/26 03:14:10;;;;;;;6.78;5.90;;;19.10;99.90;;;;;;6164803;28;20528;-67
2022/06/26 03:17:15;;;;;;;5.70;5.30;;;19.20;99.90;;;;;;6165670;29;20299;-67
2022/06/26 03:20:23;;;;;;;9.73;5.45;;;19.10;99.90;;;;;;6164747;28;20361;-67
2022/06/26 03:26:48;;;;;;;5.75;5.45;;;19.10;99.90;;;;;;6148422;28;20278;-67
2022/06/26 03:29:55;;;;;;;6.35;5.65;;;19.20;99.90;;;;;;6164574;28;20569;-67
2022/06/26 03:33:00;;;;;;;6.05;5.35;;;19.10;99.90;;;;;;6164534;28;20278;-67
2022/06/26 03:36:08;;;;;;;6.35;5.80;;;19.20;99.90;;;;;;6148230;29;20331;-67
2022/06/26 03:39:13;;;;;;;6.43;5.90;;;19.10;99.90;;;;;;6165257;29;20271;-67
2022/06/26 03:42:18;;;;;;;6.22;5.90;;;19.20;99.90;;;;;;6164145;29;20270;-67
2022/06/26 03:45:26;;;;;;;6.88;6.20;;;19.20;99.90;;;;;;6163706;29;20275;-67
2022/06/26 03:48:32;;;;;;;6.47;5.95;;;19.20;99.90;;;;;;6165087;29;20457;-67
2022/06/26 03:51:37;;;;;;;6.63;6.10;;;19.30;99.90;;;;;;6164899;29;20279;-67
2022/06/26 03:54:43;;;;;;;6.10;5.80;;;19.30;99.90;;;;;;6163871;28;20274;-67
2022/06/26 03:57:49;;;;;;;6.20;5.80;;;19.40;99.90;;;;;;6163330;28;20617;-67
2022/06/26 04:00:56;;;;;;;5.65;5.38;;;19.40;99.90;;;;;;6147815;28;20561;-67
2022/06/26 04:04:01;;;;;;;5.95;5.65;;;19.40;99.90;;;;;;6164210;29;20266;-67
2022/06/26 04:07:12;;;;;;;5.93;5.60;;;19.40;99.90;;;;;;6162858;29;20306;-67
2022/06/26 04:10:20;;;;;;;5.97;5.57;;;19.50;99.90;;;;;;6163240;29;20548;-67
2022/06/26 04:13:26;;;;;;;7.65;5.90;;;19.50;99.90;;;;;;6163244;29;20278;-67
2022/06/26 04:16:32;;;;;;;6.88;6.22;;;19.50;99.90;;;;;;6164510;29;20299;-67
2022/06/26 04:19:38;;;;;;;6.00;5.63;;;19.60;99.90;;;;;;6163051;29;20566;-67
2022/06/26 04:22:44;;;;;;;6.78;6.38;;;19.60;99.90;;;;;;6162927;29;20274;-67
2022/06/26 04:25:51;;;;;;;5.78;5.47;;;19.70;99.90;;;;;;6162810;29;20274;-67
2022/06/26 04:29:00;;;;;;;6.20;5.72;;;19.70;99.90;;;;;;6163169;29;20294;-67
2022/06/26 04:32:08;;;;;;;5.70;5.40;;;19.70;99.90;;;;;;6162814;29;20278;-67
2022/06/26 04:35:18;;;;;;;6.35;5.97;;;19.80;99.90;;;;;;6163056;29;20458;-67
2022/06/26 04:38:23;;;;;;;6.07;5.78;;;19.90;99.90;;;;;;6162860;29;20293;-67
2022/06/26 04:41:35;;;;;;;6.65;5.85;;;19.90;99.90;;;;;;6162844;29;20283;-67
2022/06/26 04:44:41;;;;;;;8.00;6.25;;;20.00;99.90;;;;;;6162732;29;20464;-67
2022/06/26 04:47:47;;;;;;;6.47;6.10;;;20.10;99.90;;;;;;6162569;29;20282;-67
2022/06/26 04:50:55;;;;;;;6.60;6.00;;;20.10;99.90;;;;;;6164100;29;20279;-67
2022/06/26 04:54:01;;;;;;;6.55;6.07;;;20.20;99.90;;;;;;6162594;29;20467;-67
2022/06/26 04:57:13;;;;;;;5.68;5.47;;;20.30;99.90;;;;;;6178566;28;20299;-67
2022/06/26 05:00:25;;;;;;;5.97;5.53;;;20.30;99.90;;;;;;6162489;29;20270;-67
2022/06/26 05:03:50;;;;;;;7.97;5.85;;;20.40;99.90;;;;;;6162572;29;20266;-67
2022/06/26 05:07:14;;;;;;;6.00;5.63;;;20.50;99.90;;;;;;6162734;28;20499;-67
2022/06/26 05:10:19;;;;;;;7.00;6.30;;;20.60;99.90;;;;;;6163887;29;20425;-67
2022/06/26 05:13:31;;;;;;;6.40;5.88;;;20.60;99.90;;;;;;6165661;28;20553;-67
2022/06/26 05:16:59;;;;;;;6.20;5.90;;;20.70;99.90;;;;;;6166598;29;20333;-67
2022/06/26 05:20:13;;;;;;;6.22;5.82;;;20.80;99.90;;;;;;6166925;28;20274;-67
2022/06/26 05:23:19;;;;;;;5.53;5.13;;;21.50;99.90;;;;;;6168005;29;20274;-67
2022/06/26 05:26:34;;;;;;;7.22;5.20;;;26.10;99.90;;;;;;6167313;28;20279;-67
2022/06/26 05:29:39;;;;;;;5.45;5.22;;;25.30;99.90;;;;;;6167376;28;20274;-67
2022/06/26 05:32:45;;;;;;;5.60;5.30;;;24.50;99.90;;;;;;6167087;29;20557;-67
2022/06/26 05:35:55;;;;;;;5.20;5.00;;;24.20;99.90;;;;;;6167072;28;20279;-67
2022/06/26 05:39:01;;;;;;;5.28;4.88;;;23.90;99.90;;;;;;6166553;29;20605;-67
2022/06/26 05:42:11;;;;;;;5.18;4.88;;;23.90;99.90;;;;;;6151414;29;20274;-67
2022/06/26 05:45:18;;;;;;;5.13;4.47;;;23.80;99.90;;;;;;6166768;29;20279;-67
2022/06/26 05:48:44;;;;;;;4.72;4.53;;;23.80;99.90;;;;;;6167712;29;20283;-67
2022/06/26 05:52:09;;;;;;;4.90;4.70;;;23.80;99.90;;;;;;6167332;29;20275;-67
2022/06/26 05:55:29;;;;;;;5.97;4.43;;;23.90;99.90;;;;;;6150215;29;20295;-67
2022/06/26 05:58:50;;;;;;;6.55;4.40;;;23.90;99.90;;;;;;6166427;28;20487;-67
2022/06/26 06:02:15;;;;;;;4.65;4.35;;;23.90;99.90;;;;;;6167366;29;20274;-67
2022/06/26 06:05:21;;;;;;;4.40;4.18;;;23.90;99.90;;;;;;6167128;29;20270;-67
2022/06/26 06:08:28;;;;;;;4.63;4.50;;;24.00;99.90;;;;;;6165409;29;20489;-67
2022/06/26 06:11:34;;;;;;;4.32;4.00;;;24.00;99.90;;;;;;6165559;29;20274;-67
2022/06/26 06:14:39;;;;;;;6.28;4.30;;;24.10;99.90;;;;;;6165243;29;20275;-67
2022/06/26 06:17:44;;;;;;;4.75;4.40;;;24.10;99.90;;;;;;6167017;29;20274;-67
2022/06/26 06:20:50;;;;;;;4.50;4.20;;;24.20;99.90;;;;;;6165548;29;20280;-68
2022/06/26 06:24:17;;;;;;;5.10;4.70;;;24.30;99.90;;;;;;6165570;28;20279;-67
2022/06/26 06:27:22;;;;;;;4.45;4.35;;;24.40;99.70;;;;;;6165731;29;20278;-67
2022/06/26 06:30:28;;;;;;;4.32;4.13;;;24.50;99.20;;;;;;6165365;29;20282;-68
2022/06/26 06:33:34;;;;;;;4.95;4.00;;;24.60;99.10;;;;;;6165421;29;20274;-68
2022/06/26 06:36:40;;;;;;;4.20;4.00;;;24.50;98.50;;;;;;6165246;29;20294;-67
2022/06/26 06:39:48;;;;;;;6.32;4.53;;;24.60;98.40;;;;;;6164865;29;20298;-67
2022/06/26 06:42:54;;;;;;;5.30;4.20;;;24.60;98.40;;;;;;6165260;29;20274;-67
2022/06/26 06:46:03;;;;;;;4.60;4.18;;;24.60;98.40;;;;;;6165008;29;20279;-68
2022/06/26 06:49:11;;;;;;;4.45;4.30;;;24.70;98.70;;;;;;6166253;29;20278;-68
2022/06/26 06:52:29;;;;;;;4.40;4.10;;;24.70;97.60;;;;;;6164920;29;20434;-68
2022/06/26 06:55:36;;;;;;;3.88;3.63;;;24.80;97.90;;;;;;6164468;29;20279;-68
2022/06/26 06:58:41;;;;;;;4.40;4.00;;;24.80;97.10;;;;;;6164090;29;20290;-68
2022/06/26 07:01:47;;;;;;;5.15;4.72;;;24.90;97.40;;;;;;6164691;29;20278;-68
2022/06/26 07:04:53;;;;;;;4.18;3.92;;;25.00;96.60;;;;;;6159766;29;20441;-68
2022/06/26 07:08:00;;;;;;;4.95;4.53;;;25.10;96.80;;;;;;6165729;28;20298;-68
2022/06/26 07:11:07;;;;;;;4.15;4.05;;;25.20;96.30;;;;;;6164855;29;20278;-68
2022/06/26 07:14:13;;;;;;;4.32;4.13;;;25.20;96.70;;;;;;6165558;29;20455;-68
2022/06/26 07:17:21;;;;;;;4.38;4.28;;;25.40;96.90;;;;;;6164707;28;20274;-68
2022/06/26 07:20:30;;;;;;;4.72;4.30;;;25.40;95.70;;;;;;6163987;29;20294;-68
2022/06/26 07:23:36;;;;;;;5.43;3.97;;;25.60;96.50;;;;;;6164392;28;20279;-68
2022/06/26 07:27:18;;;;;;;4.40;4.20;;;25.70;96.30;;;;;;6116760;29;20272;-67
2022/06/26 07:30:24;;;;;;;4.50;4.20;;;25.70;95.90;;;;;;6164230;29;20419;-67
2022/06/26 07:37:09;;;;;;;4.25;4.03;;;25.80;94.80;;;;;;6158560;28;20294;-68
2022/06/26 07:40:16;;;;;;;4.55;4.40;;;25.90;94.30;;;;;;6164134;28;20294;-67
2022/06/26 07:43:23;;;;;;;4.03;3.75;;;25.90;94.90;;;;;;6163908;28;20270;-67
2022/06/26 07:46:28;;;;;;;4.90;4.47;;;26.00;95.20;;;;;;6163662;29;20274;-68
2022/06/26 07:49:35;;;;;;;4.65;4.07;;;26.00;94.70;;;;;;6148153;29;20278;-67
2022/06/26 07:52:41;;;;;;;5.13;4.70;;;26.20;95.30;;;;;;6163155;29;20274;-68
2022/06/26 07:55:47;;;;;;;4.63;4.35;;;26.00;93.40;;;;;;6164843;28;20274;-68
2022/06/26 07:58:53;;;;;;;4.75;4.35;;;26.10;93.80;;;;;;6164322;29;20270;-68
2022/06/26 08:01:58;;;;;;;5.03;4.72;;;26.20;94.20;;;;;;6164339;29;20270;-67
2022/06/26 08:05:05;;;;;;;4.60;4.07;;;26.40;94.30;;;;;;6164612;29;20266;-67
2022/06/26 08:08:14;;;;;;;4.05;3.75;;;26.50;93.40;;;;;;6182843;28;20302;-68
2022/06/26 08:11:20;;;;;;;4.60;4.20;;;26.60;93.40;;;;;;6188425;28;20435;-67
2022/06/26 08:14:27;;;;;;;4.43;4.15;;;26.50;93.40;;;;;;6188258;28;20269;-67
2022/06/26 08:17:32;;;;;;;4.57;4.22;;;26.60;94.50;;;;;;6188240;28;20273;-67
2022/06/26 08:20:38;;;;;;;4.40;4.20;;;26.60;93.50;;;;;;6187929;28;20620;-67
2022/06/26 08:23:44;;;;;;;4.45;4.00;;;26.60;93.00;;;;;;6188008;28;20274;-67
2022/06/26 08:26:49;;;;;;;3.80;3.60;;;26.60;93.30;;;;;;6187519;28;20273;-68
2022/06/26 08:29:55;;;;;;;3.67;3.47;;;26.60;92.40;;;;;;6187750;28;20458;-68
2022/06/26 08:33:00;;;;;;;3.72;3.53;;;26.70;90.90;;;;;;6187553;28;20279;-68
2022/06/26 08:36:06;;;;;;;3.85;3.60;;;26.80;91.10;;;;;;6188066;28;20274;-68
2022/06/26 08:39:12;;;;;;;5.40;4.30;;;26.80;91.60;;;;;;6187790;28;20289;-68
2022/06/26 08:42:18;;;;;;;4.95;4.32;;;26.80;93.20;;;;;;6187317;28;20297;-67
2022/06/26 08:45:25;;;;;;;4.90;4.65;;;26.80;93.10;;;;;;6187713;28;20273;-68
2022/06/26 08:48:35;;;;;;;5.07;4.47;;;26.80;93.90;;;;;;6189631;28;20568;-68
2022/06/26 08:51:42;;;;;;;5.30;4.90;;;26.90;95.00;;;;;;6192620;28;20282;-67
2022/06/26 08:54:48;;;;;;;4.40;4.10;;;26.90;94.00;;;;;;6192657;28;20273;-67
2022/06/26 08:57:53;;;;;;;4.65;4.28;;;26.90;93.00;;;;;;6192582;28;20274;-67
2022/06/26 09:01:00;;;;;;;4.72;4.30;;;26.90;91.90;;;;;;6175203;28;20313;-67
2022/06/26 09:04:06;;;;;;;4.85;4.50;;;27.00;92.90;;;;;;6185657;28;20266;-67
2022/06/26 09:07:11;;;;;;;6.13;4.90;;;26.90;92.90;;;;;;6168914;28;20302;-67
2022/06/26 09:10:17;;;;;;;4.82;4.15;;;26.90;94.10;;;;;;6168401;29;20291;-67
2022/06/26 09:13:23;;;;;;;4.80;4.40;;;26.90;92.60;;;;;;6168363;29;20278;-67
2022/06/26 09:16:33;;;;;;;4.45;4.20;;;26.90;92.60;;;;;;6167812;29;20274;-67
2022/06/26 09:19:43;;;;;;;4.60;4.28;;;27.00;92.60;;;;;;6168329;29;20275;-67
2022/06/26 09:22:53;;;;;;;4.63;4.18;;;26.90;93.50;;;;;;6167757;29;20298;-68
2022/06/26 09:25:59;;;;;;;3.90;3.70;;;27.10;92.40;;;;;;6168042;29;20275;-68
2022/06/26 09:29:10;;;;;;;4.28;4.07;;;27.10;92.70;;;;;;6167712;29;20275;-68
2022/06/26 09:32:17;;;;;;;4.13;3.80;;;27.10;92.00;;;;;;6167724;29;20278;-68
2022/06/26 09:35:24;;;;;;;4.95;4.53;;;27.10;92.10;;;;;;6167791;29;20582;-69
2022/06/26 09:38:31;;;;;;;4.80;4.47;;;27.20;92.10;;;;;;6167748;28;20274;-69
2022/06/26 09:41:37;;;;;;;6.05;4.05;;;27.20;92.30;;;;;;6167121;29;20294;-68
2022/06/26 09:44:49;;;;;;;4.30;3.83;;;27.20;92.10;;;;;;6167286;29;20280;-67
2022/06/26 09:47:56;;;;;;;4.57;4.18;;;27.30;92.00;;;;;;6167327;29;20270;-67
2022/06/26 09:51:02;;;;;;;4.18;3.83;;;27.30;91.80;;;;;;6167794;28;20279;-67
2022/06/26 09:54:08;;;;;;;3.80;3.70;;;27.20;92.00;;;;;;6167194;29;20274;-68
2022/06/26 09:57:13;;;;;;;5.85;3.95;;;27.30;91.00;;;;;;6167344;28;20278;-68
2022/06/26 10:00:19;;;;;;;4.10;3.90;;;27.30;91.00;;;;;;6166911;28;20274;-67
2022/06/26 10:06:49;;;;;;;4.85;3.60;;;27.30;91.90;;;;;;6174390;28;20303;-67
2022/06/26 10:09:56;;;;;;;4.93;3.40;;;27.50;91.50;;;;;;6191094;28;20273;-67
2022/06/26 10:13:05;;;;;;;5.38;4.97;;;27.50;90.40;;;;;;6191164;28;20273;-67
2022/06/26 10:16:27;;;;;;;6.38;4.00;;;27.60;90.50;;;;;;6191171;28;20274;-67
2022/06/26 10:19:42;;;;;;;5.20;4.47;;;27.60;89.90;;;;;;6190831;28;20506;-68
2022/06/26 10:22:48;;;;;;;6.85;4.05;;;27.70;89.50;;;;;;6190718;28;20294;-67
2022/06/26 10:25:53;;;;;;;3.97;3.70;;;27.70;90.20;;;;;;6190505;28;20357;-68
2022/06/26 10:29:00;;;;;;;4.30;4.07;;;27.70;90.50;;;;;;6190242;28;20278;-67
2022/06/26 10:32:08;;;;;;;4.43;4.00;;;27.80;90.20;;;;;;6190664;28;20282;-67
2022/06/26 10:35:15;;;;;;;3.75;3.50;;;27.80;90.50;;;;;;6190585;28;20273;-68
2022/06/26 10:38:22;;;;;;;4.40;3.60;;;27.80;88.70;;;;;;6190592;28;20448;-68
2022/06/26 10:44:58;;;;;;;7.40;3.67;;;28.00;88.10;;;;;;6190143;28;20278;-68
2022/06/26 10:48:07;;;;;;;4.20;3.90;;;28.00;87.90;;;;;;6190130;28;20274;-68
2022/06/26 10:51:25;;;;;;;4.53;4.32;;;28.10;88.00;;;;;;6189744;28;20270;-68
2022/06/26 10:54:33;;;;;;;4.20;3.83;;;28.10;86.20;;;;;;6189924;28;20270;-68
2022/06/26 10:57:39;;;;;;;5.55;4.15;;;28.20;87.10;;;;;;6190024;28;20464;-68
2022/06/26 11:00:45;;;;;;;4.10;3.90;;;28.30;86.80;;;;;;6190111;28;20273;-68
2022/06/26 11:03:50;;;;;;;37.70;4.78;;;28.20;86.60;;;;;;6184588;28;20310;-68
2022/06/26 11:06:57;;;;;;;5.18;3.95;;;28.30;86.60;;;;;;6166260;28;20480;-68
2022/06/26 11:10:02;;;;;;;13.82;4.43;;;28.30;86.10;;;;;;6165675;28;20274;-68
2022/06/26 11:13:10;;;;;;;6.00;3.90;;;28.50;84.90;;;;;;6165295;28;20278;-68
2022/06/26 11:16:15;;;;;;;4.60;4.00;;;28.50;84.60;;;;;;6165822;28;20271;-68
2022/06/26 11:19:23;;;;;;;33.90;4.38;;;28.60;84.80;;;;;;6165549;28;20586;-68
2022/06/26 11:22:30;;;;;;;4.65;4.10;;;28.60;84.80;;;;;;6165762;28;20296;-67
2022/06/26 11:25:35;;;;;;;4.63;3.92;;;28.50;84.50;;;;;;6165667;28;20566;-68
2022/06/26 11:28:43;;;;;;;4.57;3.53;;;28.60;84.40;;;;;;6164943;29;20441;-67
2022/06/26 11:31:49;;;;;;;5.75;3.60;;;28.70;83.10;;;;;;6165246;29;20274;-67
2022/06/26 11:34:56;;;;;;;5.85;4.13;;;28.80;83.20;;;;;;6165327;29;20276;-67
2022/06/26 11:38:12;;;;;;;4.53;4.07;;;28.80;83.80;;;;;;6165169;29;20279;-67
2022/06/26 11:41:18;;;;;;;4.53;4.20;;;28.80;83.60;;;;;;6165242;29;20589;-67
2022/06/26 11:44:23;;;;;;;4.07;3.83;;;28.80;83.50;;;;;;6164573;29;20294;-67
2022/06/26 11:47:28;;;;;;;4.15;4.05;;;28.70;83.90;;;;;;6147911;29;20299;-67
2022/06/26 11:50:36;;;;;;;4.15;3.95;;;28.70;84.80;;;;;;6164516;29;20310;-67
2022/06/26 11:53:47;;;;;;;6.07;3.92;;;28.80;85.10;;;;;;6164725;28;20279;-67
2022/06/26 11:56:52;;;;;;;4.40;4.07;;;28.80;85.40;;;;;;6164335;29;20274;-67
2022/06/26 11:59:58;;;;;;;6.90;4.40;;;28.90;84.00;;;;;;6164886;29;20274;-67
2022/06/26 12:03:03;;;;;;;5.07;4.15;;;29.00;84.10;;;;;;6164692;29;20588;-67
2022/06/26 12:06:08;;;;;;;5.47;3.65;;;29.00;83.50;;;;;;6166847;28;20266;-67
2022/06/26 12:09:23;;;;;;;3.95;3.70;;;29.10;83.00;;;;;;6188209;28;20277;-67
2022/06/26 12:12:29;;;;;;;4.28;3.95;;;29.00;81.50;;;;;;6188443;28;20278;-67
2022/06/26 12:15:36;;;;;;;4.07;3.42;;;29.20;82.00;;;;;;6188435;28;20275;-67
2022/06/26 12:18:43;;;;;;;3.75;3.55;;;29.20;81.80;;;;;;6188401;28;20274;-67
2022/06/26 12:21:51;;;;;;;3.95;3.72;;;29.30;82.30;;;;;;6187624;28;20278;-67
2022/06/26 12:24:57;;;;;;;3.70;3.40;;;29.30;81.70;;;;;;6187991;28;20294;-67
2022/06/26 12:28:04;;;;;;;3.70;3.28;;;29.50;79.80;;;;;;6188280;28;20510;-67
2022/06/26 12:31:09;;;;;;;5.38;4.07;;;29.40;79.50;;;;;;6188314;28;20565;-67
2022/06/26 12:34:21;;;;;;;4.03;3.38;;;29.50;79.30;;;;;;6187726;28;20460;-67
2022/06/26 12:37:26;;;;;;;3.92;3.80;;;29.50;79.10;;;;;;6187760;28;20286;-67
2022/06/26 12:40:34;;;;;;;3.83;3.63;;;29.50;80.90;;;;;;6188042;28;20274;-67
2022/06/26 12:43:40;;;;;;;3.90;3.70;;;29.50;82.20;;;;;;6187805;28;20293;-67
2022/06/26 12:46:46;;;;;;;3.80;3.65;;;29.50;81.00;;;;;;6187623;28;20457;-67
2022/06/26 12:49:51;;;;;;;3.90;3.70;;;29.40;79.00;;;;;;6187705;28;20313;-67
2022/06/26 12:53:00;;;;;;;3.90;3.75;;;29.60;77.90;;;;;;6187849;28;20282;-67
2022/06/26 12:56:08;;;;;;;3.80;3.70;;;29.70;77.90;;;;;;6188044;28;20274;-67
2022/06/26 12:59:13;;;;;;;3.65;3.55;;;29.70;78.40;;;;;;6187569;28;20322;-67
2022/06/26 13:02:18;;;;;;;3.80;3.60;;;29.70;76.50;;;;;;6187121;28;20270;-67
2022/06/26 13:05:24;;;;;;;4.40;3.95;;;29.80;77.20;;;;;;6170903;28;20297;-67
2022/06/26 13:08:30;;;;;;;4.32;4.13;;;29.80;77.80;;;;;;6163825;28;20303;-68
2022/06/26 13:11:38;;;;;;;7.68;3.90;;;29.90;78.50;;;;;;6163235;29;20274;-67
2022/06/26 13:14:44;;;;;;;3.75;3.45;;;30.00;76.60;;;;;;6163778;29;20278;-67
2022/06/26 13:17:50;;;;;;;3.95;3.83;;;30.00;76.10;;;;;;6163720;29;20274;-67
2022/06/26 13:21:02;;;;;;;4.93;3.80;;;29.90;75.50;;;;;;6163721;29;20274;-67
2022/06/26 13:24:08;;;;;;;6.25;4.10;;;30.10;75.40;;;;;;6163326;28;20589;-67
2022/06/26 13:27:17;;;;;;;4.47;3.53;;;30.00;74.70;;;;;;6163632;29;20274;-69
2022/06/26 13:30:22;;;;;;;4.53;4.20;;;30.10;74.80;;;;;;6163453;28;20275;-67
2022/06/26 13:33:27;;;;;;;5.20;3.72;;;30.10;74.90;;;;;;6163384;28;20435;-67
2022/06/26 13:36:33;;;;;;;3.85;3.50;;;30.10;75.10;;;;;;6167838;28;20294;-67
2022/06/26 13:39:39;;;;;;;3.75;3.53;;;30.10;73.90;;;;;;6166860;28;20274;-67
2022/06/26 13:42:45;;;;;;;4.03;3.70;;;30.10;75.80;;;;;;6167809;28;20333;-67
2022/06/26 13:45:50;;;;;;;3.40;3.30;;;30.20;74.80;;;;;;6167572;29;20613;-67
2022/06/26 13:48:55;;;;;;;3.63;3.50;;;30.10;73.20;;;;;;6167713;29;20274;-67
2022/06/26 13:52:01;;;;;;;5.32;3.35;;;30.50;74.20;;;;;;6167652;29;20274;-67
2022/06/26 13:55:10;;;;;;;4.45;3.67;;;31.10;71.00;;;;;;6167522;29;20461;-67
2022/06/26 13:58:16;;;;;;;3.97;3.50;;;32.20;68.00;;;;;;6166463;28;20582;-68
2022/06/26 14:01:24;;;;;;;3.83;3.58;;;31.90;68.00;;;;;;6167580;28;20274;-68
2022/06/26 14:04:29;;;;;;;4.00;3.60;;;31.70;68.40;;;;;;6166993;29;20462;-68
2022/06/26 14:07:34;;;;;;;3.60;3.40;;;32.20;65.40;;;;;;6180360;28;20577;-68
2022/06/26 14:10:39;;;;;;;3.15;3.13;;;31.90;65.20;;;;;;6190663;28;20273;-68
2022/06/26 14:13:46;;;;;;;3.67;3.38;;;32.20;65.80;;;;;;6191113;28;20273;-67
2022/06/26 14:16:51;;;;;;;3.03;2.83;;;33.10;64.00;;;;;;6190776;28;20270;-68
2022/06/26 14:19:58;;;;;;;3.40;3.30;;;32.70;63.80;;;;;;6190699;28;20274;-67
2022/06/26 14:26:25;;;;;;;4.07;3.97;;;31.40;66.70;;;;;;6190024;28;20369;-67
2022/06/26 14:29:32;;;;;;;3.80;3.60;;;31.20;67.80;;;;;;6190325;28;20273;-67
2022/06/26 14:32:37;;;;;;;4.15;3.83;;;30.90;69.60;;;;;;6190183;28;20573;-67
2022/06/26 14:35:43;;;;;;;5.68;3.60;;;30.90;69.70;;;;;;6190337;28;20277;-68
2022/06/26 14:38:48;;;;;;;4.35;4.10;;;30.80;68.20;;;;;;6190521;28;20299;-68
2022/06/26 14:41:58;;;;;;;3.78;3.53;;;30.90;68.80;;;;;;6190431;28;20278;-68
2022/06/26 14:45:06;;;;;;;4.70;3.72;;;30.90;68.10;;;;;;6190044;28;20468;-68
2022/06/26 14:48:11;;;;;;;3.88;3.58;;;31.60;66.50;;;;;;6190403;28;20273;-68
2022/06/26 14:51:16;;;;;;;4.00;3.70;;;31.80;65.40;;;;;;6190133;28;20471;-68
2022/06/26 14:54:21;;;;;;;3.72;3.53;;;31.90;64.50;;;;;;6190133;28;20273;-68
2022/06/26 14:57:27;;;;;;;4.30;3.92;;;32.10;64.40;;;;;;6189966;28;20273;-68
2022/06/26 15:00:33;;;;;;;7.20;3.92;;;31.60;66.00;;;;;;6189910;28;20279;-68
2022/06/26 15:03:38;;;;;;;4.53;4.28;;;31.30;67.70;;;;;;6186504;28;20318;-68
2022/06/26 15:06:44;;;;;;;10.35;4.10;;;31.10;67.80;;;;;;6165329;28;20310;-68
2022/06/26 15:09:49;;;;;;;4.05;3.75;;;30.90;67.60;;;;;;6166066;28;20274;-68
2022/06/26 15:12:54;;;;;;;4.32;4.03;;;30.80;68.40;;;;;;6165801;29;20291;-68
2022/06/26 15:16:01;;;;;;;5.88;4.47;;;30.70;68.90;;;;;;6165997;28;20290;-67
2022/06/26 15:19:06;;;;;;;5.18;4.18;;;30.60;68.50;;;;;;6165440;28;20274;-67
2022/06/26 15:22:11;;;;;;;4.32;3.97;;;30.50;69.20;;;;;;6165517;28;20279;-68
2022/06/26 15:25:17;;;;;;;5.15;4.28;;;30.50;70.40;;;;;;6165503;28;20294;-68
2022/06/26 15:28:23;;;;;;;6.18;4.03;;;30.50;69.60;;;;;;6165024;29;20275;-68
2022/06/26 15:31:30;;;;;;;8.18;4.40;;;30.50;69.10;;;;;;6165135;29;20270;-67
2022/06/26 15:34:36;;;;;;;4.78;4.43;;;30.30;71.20;;;;;;6165280;29;20275;-67
2022/06/26 15:37:41;;;;;;;4.55;4.30;;;30.40;70.20;;;;;;6164873;29;20489;-67
2022/06/26 15:40:48;;;;;;;4.90;4.10;;;30.70;68.60;;;;;;6165410;29;20278;-68
2022/06/26 15:43:54;;;;;;;6.18;4.03;;;31.10;67.80;;;;;;6165315;28;20530;-67
2022/06/26 15:47:01;;;;;;;4.90;4.05;;;31.20;67.00;;;;;;6164948;29;20294;-67
2022/06/26 15:50:08;;;;;;;4.15;3.85;;;30.90;67.90;;;;;;6165128;28;20364;-68
2022/06/26 15:53:15;;;;;;;4.30;4.00;;;30.80;67.70;;;;;;6164640;28;20590;-68
2022/06/26 15:56:21;;;;;;;5.57;4.45;;;30.50;68.60;;;;;;6164544;28;20278;-68
2022/06/26 15:59:26;;;;;;;5.97;4.10;;;30.20;70.10;;;;;;6164803;29;20371;-68
2022/06/26 16:02:33;;;;;;;6.18;4.30;;;30.30;69.80;;;;;;6164751;28;20295;-68
2022/06/26 16:05:38;;;;;;;5.82;4.20;;;30.20;69.90;;;;;;6164523;29;20290;-68
2022/06/26 16:08:44;;;;;;;4.40;4.20;;;30.20;70.00;;;;;;6184899;28;20426;-68
2022/06/26 16:11:49;;;;;;;5.63;4.05;;;30.20;70.40;;;;;;6188269;28;20273;-68
2022/06/26 16:14:54;;;;;;;4.90;4.35;;;30.20;70.00;;;;;;6188379;28;20278;-68
2022/06/26 16:18:01;;;;;;;4.35;4.05;;;30.10;70.40;;;;;;6187832;28;20278;-68
2022/06/26 16:21:07;;;;;;;4.03;3.83;;;29.90;70.70;;;;;;6187639;28;20273;-67
2022/06/26 16:27:34;;;;;;;4.82;4.43;;;29.70;72.50;;;;;;6187692;28;20294;-68
2022/06/26 16:30:40;;;;;;;4.45;4.25;;;29.70;72.60;;;;;;6187809;28;20273;-68
2022/06/26 16:33:47;;;;;;;7.07;4.25;;;29.50;73.70;;;;;;6188022;28;20466;-68
2022/06/26 16:36:52;;;;;;;6.57;4.20;;;29.40;74.30;;;;;;6188036;28;20440;-68